sensor_id;sensor_type;location;lat;lon;timestamp;P1;durP1;ratioP1;P2;durP2;ratioP2
34035;SDS011;63481;52.588;22.472;2023-02-23T00:00:03;12.20;;;4.70;;
34035;SDS011;63481;52.588;22.472;2023-02-23T00:01:20;8.20;;;4.30;;
34035;SDS011;63481;52.588;22.472;2023-02-23T00:02:14;10.70;;;4.80;;
34035;SDS011;63481;52.588;22.472;2023-02-23T00:03:07;9.50;;;4.90;;
34035;SDS011;63481;52.588;22.472;2023-02-23T00:04:00;11.70;;;5.30;;
34035;SDS011;63481;52.588;22.472;2023-02-23T00:04:52;9.20;;;4.80;;
34035;SDS011;63481;52.588;22.472;2023-02-23T00:05:45;10.30;;;5.40;;
34035;SDS011;63481;52.588;22.472;2023-02-23T00:06:38;9.80;;;4.60;;
34035;SDS011;63481;52.588;22.472;2023-02-23T00:07:30;9.00;;;4.10;;
34035;SDS011;63481;52.588;22.472;2023-02-23T00:08:23;9.10;;;4.90;;
34035;SDS011;63481;52.588;22.472;2023-02-23T00:09:17;11.20;;;5.40;;
34035;SDS011;63481;52.588;22.472;2023-02-23T00:10:16;9.00;;;4.40;;
34035;SDS011;63481;52.588;22.472;2023-02-23T00:11:11;10.70;;;5.10;;
34035;SDS011;63481;52.588;22.472;2023-02-23T00:12:04;9.60;;;5.10;;
34035;SDS011;63481;52.588;22.472;2023-02-23T00:13:01;10.50;;;5.00;;
34035;SDS011;63481;52.588;22.472;2023-02-23T00:13:56;10.70;;;5.20;;
34035;SDS011;63481;52.588;22.472;2023-02-23T00:14:49;9.00;;;4.70;;
34035;SDS011;63481;52.588;22.472;2023-02-23T00:15:41;10.10;;;4.70;;
34035;SDS011;63481;52.588;22.472;2023-02-23T00:16:34;9.10;;;4.80;;
34035;SDS011;63481;52.588;22.472;2023-02-23T00:17:28;8.90;;;4.60;;
34035;SDS011;63481;52.588;22.472;2023-02-23T00:18:22;10.10;;;5.20;;
34035;SDS011;63481;52.588;22.472;2023-02-23T00:19:15;10.00;;;4.90;;
34035;SDS011;63481;52.588;22.472;2023-02-23T00:20:09;9.80;;;4.80;;
34035;SDS011;63481;52.588;22.472;2023-02-23T00:21:03;10.40;;;4.60;;
34035;SDS011;63481;52.588;22.472;2023-02-23T00:21:56;11.50;;;5.80;;
34035;SDS011;63481;52.588;22.472;2023-02-23T00:22:54;9.50;;;4.80;;
34035;SDS011;63481;52.588;22.472;2023-02-23T00:23:55;12.30;;;5.70;;
34035;SDS011;63481;52.588;22.472;2023-02-23T00:25:00;10.90;;;5.50;;
34035;SDS011;63481;52.588;22.472;2023-02-23T00:25:52;11.00;;;5.30;;
34035;SDS011;63481;52.588;22.472;2023-02-23T00:26:46;11.00;;;5.80;;
34035;SDS011;63481;52.588;22.472;2023-02-23T00:27:39;9.80;;;4.60;;
34035;SDS011;63481;52.588;22.472;2023-02-23T00:28:38;10.10;;;5.10;;
34035;SDS011;63481;52.588;22.472;2023-02-23T00:29:33;10.40;;;5.10;;
34035;SDS011;63481;52.588;22.472;2023-02-23T00:30:30;11.10;;;4.80;;
34035;SDS011;63481;52.588;22.472;2023-02-23T00:31:23;10.30;;;5.10;;
34035;SDS011;63481;52.588;22.472;2023-02-23T00:32:18;10.90;;;5.10;;
34035;SDS011;63481;52.588;22.472;2023-02-23T00:33:11;10.80;;;5.10;;
34035;SDS011;63481;52.588;22.472;2023-02-23T00:34:05;10.10;;;4.40;;
34035;SDS011;63481;52.588;22.472;2023-02-23T00:34:58;8.90;;;4.10;;
34035;SDS011;63481;52.588;22.472;2023-02-23T00:35:51;9.60;;;4.80;;
34035;SDS011;63481;52.588;22.472;2023-02-23T00:36:50;10.00;;;5.00;;
34035;SDS011;63481;52.588;22.472;2023-02-23T00:37:46;9.60;;;5.00;;
34035;SDS011;63481;52.588;22.472;2023-02-23T00:38:40;11.30;;;5.20;;
34035;SDS011;63481;52.588;22.472;2023-02-23T00:39:33;10.40;;;5.00;;
34035;SDS011;63481;52.588;22.472;2023-02-23T00:40:26;10.60;;;5.40;;
34035;SDS011;63481;52.588;22.472;2023-02-23T00:41:20;10.60;;;5.10;;
34035;SDS011;63481;52.588;22.472;2023-02-23T00:42:16;8.90;;;4.80;;
34035;SDS011;63481;52.588;22.472;2023-02-23T00:43:09;9.40;;;4.80;;
34035;SDS011;63481;52.588;22.472;2023-02-23T00:44:01;9.90;;;4.90;;
34035;SDS011;63481;52.588;22.472;2023-02-23T00:44:54;9.10;;;4.60;;
34035;SDS011;63481;52.588;22.472;2023-02-23T00:45:48;10.40;;;4.80;;
34035;SDS011;63481;52.588;22.472;2023-02-23T00:46:41;9.80;;;4.60;;
34035;SDS011;63481;52.588;22.472;2023-02-23T00:47:35;8.60;;;4.40;;
34035;SDS011;63481;52.588;22.472;2023-02-23T00:48:28;9.20;;;5.10;;
34035;SDS011;63481;52.588;22.472;2023-02-23T00:49:21;9.20;;;4.70;;
34035;SDS011;63481;52.588;22.472;2023-02-23T00:50:15;9.50;;;4.50;;
34035;SDS011;63481;52.588;22.472;2023-02-23T00:51:09;11.50;;;5.00;;
34035;SDS011;63481;52.588;22.472;2023-02-23T00:52:02;10.20;;;5.00;;
34035;SDS011;63481;52.588;22.472;2023-02-23T00:52:56;9.60;;;4.40;;
34035;SDS011;63481;52.588;22.472;2023-02-23T00:53:54;10.10;;;4.80;;
34035;SDS011;63481;52.588;22.472;2023-02-23T00:54:47;9.60;;;4.90;;
34035;SDS011;63481;52.588;22.472;2023-02-23T00:55:40;10.50;;;4.80;;
34035;SDS011;63481;52.588;22.472;2023-02-23T00:56:33;9.90;;;4.90;;
34035;SDS011;63481;52.588;22.472;2023-02-23T00:57:26;10.70;;;4.80;;
34035;SDS011;63481;52.588;22.472;2023-02-23T00:58:19;10.10;;;4.30;;
34035;SDS011;63481;52.588;22.472;2023-02-23T00:59:12;8.80;;;4.50;;
34035;SDS011;63481;52.588;22.472;2023-02-23T01:00:07;9.10;;;4.70;;
34035;SDS011;63481;52.588;22.472;2023-02-23T01:01:20;9.80;;;4.90;;
34035;SDS011;63481;52.588;22.472;2023-02-23T01:02:15;9.60;;;4.30;;
34035;SDS011;63481;52.588;22.472;2023-02-23T01:03:08;8.60;;;4.20;;
34035;SDS011;63481;52.588;22.472;2023-02-23T01:04:01;10.20;;;4.80;;
34035;SDS011;63481;52.588;22.472;2023-02-23T01:04:55;8.90;;;4.50;;
34035;SDS011;63481;52.588;22.472;2023-02-23T01:05:50;11.20;;;4.50;;
34035;SDS011;63481;52.588;22.472;2023-02-23T01:06:43;10.50;;;5.00;;
34035;SDS011;63481;52.588;22.472;2023-02-23T01:07:37;9.50;;;5.10;;
34035;SDS011;63481;52.588;22.472;2023-02-23T01:08:32;10.40;;;4.90;;
34035;SDS011;63481;52.588;22.472;2023-02-23T01:09:26;9.20;;;4.60;;
34035;SDS011;63481;52.588;22.472;2023-02-23T01:10:21;10.00;;;4.90;;
34035;SDS011;63481;52.588;22.472;2023-02-23T01:11:16;8.90;;;4.70;;
34035;SDS011;63481;52.588;22.472;2023-02-23T01:12:12;9.60;;;4.60;;
34035;SDS011;63481;52.588;22.472;2023-02-23T01:13:05;9.60;;;4.60;;
34035;SDS011;63481;52.588;22.472;2023-02-23T01:13:58;8.70;;;4.40;;
34035;SDS011;63481;52.588;22.472;2023-02-23T01:14:52;8.60;;;3.80;;
34035;SDS011;63481;52.588;22.472;2023-02-23T01:15:44;7.60;;;3.80;;
34035;SDS011;63481;52.588;22.472;2023-02-23T01:16:39;7.50;;;3.60;;
34035;SDS011;63481;52.588;22.472;2023-02-23T01:17:33;7.50;;;3.90;;
34035;SDS011;63481;52.588;22.472;2023-02-23T01:18:25;11.10;;;4.30;;
34035;SDS011;63481;52.588;22.472;2023-02-23T01:19:18;8.20;;;4.00;;
34035;SDS011;63481;52.588;22.472;2023-02-23T01:20:12;9.20;;;4.20;;
34035;SDS011;63481;52.588;22.472;2023-02-23T01:21:29;10.90;;;4.40;;
34035;SDS011;63481;52.588;22.472;2023-02-23T01:22:24;10.70;;;4.90;;
34035;SDS011;63481;52.588;22.472;2023-02-23T01:23:17;10.50;;;4.70;;
34035;SDS011;63481;52.588;22.472;2023-02-23T01:24:12;9.40;;;4.40;;
34035;SDS011;63481;52.588;22.472;2023-02-23T01:25:05;9.50;;;4.50;;
34035;SDS011;63481;52.588;22.472;2023-02-23T01:25:58;8.30;;;4.00;;
34035;SDS011;63481;52.588;22.472;2023-02-23T01:26:51;9.20;;;4.20;;
34035;SDS011;63481;52.588;22.472;2023-02-23T01:27:45;10.00;;;4.40;;
34035;SDS011;63481;52.588;22.472;2023-02-23T01:28:38;8.10;;;4.20;;
34035;SDS011;63481;52.588;22.472;2023-02-23T01:29:31;9.20;;;4.60;;
34035;SDS011;63481;52.588;22.472;2023-02-23T01:30:24;9.30;;;4.50;;
34035;SDS011;63481;52.588;22.472;2023-02-23T01:31:17;7.90;;;3.60;;
34035;SDS011;63481;52.588;22.472;2023-02-23T01:32:10;8.30;;;4.10;;
34035;SDS011;63481;52.588;22.472;2023-02-23T01:33:03;8.70;;;4.10;;
34035;SDS011;63481;52.588;22.472;2023-02-23T01:33:57;8.70;;;3.70;;
34035;SDS011;63481;52.588;22.472;2023-02-23T01:34:52;9.80;;;4.60;;
34035;SDS011;63481;52.588;22.472;2023-02-23T01:35:44;6.80;;;3.70;;
34035;SDS011;63481;52.588;22.472;2023-02-23T01:36:39;9.90;;;4.70;;
34035;SDS011;63481;52.588;22.472;2023-02-23T01:37:34;8.50;;;4.50;;
34035;SDS011;63481;52.588;22.472;2023-02-23T01:38:31;8.70;;;4.20;;
34035;SDS011;63481;52.588;22.472;2023-02-23T01:39:24;9.70;;;4.70;;
34035;SDS011;63481;52.588;22.472;2023-02-23T01:40:20;9.80;;;4.90;;
34035;SDS011;63481;52.588;22.472;2023-02-23T01:41:23;9.70;;;4.50;;
34035;SDS011;63481;52.588;22.472;2023-02-23T01:42:18;10.40;;;4.80;;
34035;SDS011;63481;52.588;22.472;2023-02-23T01:43:13;10.00;;;4.50;;
34035;SDS011;63481;52.588;22.472;2023-02-23T01:46:18;10.20;;;4.80;;
34035;SDS011;63481;52.588;22.472;2023-02-23T01:47:12;9.30;;;4.40;;
34035;SDS011;63481;52.588;22.472;2023-02-23T01:48:06;9.40;;;4.80;;
34035;SDS011;63481;52.588;22.472;2023-02-23T01:49:03;8.60;;;4.00;;
34035;SDS011;63481;52.588;22.472;2023-02-23T01:50:03;9.60;;;4.60;;
34035;SDS011;63481;52.588;22.472;2023-02-23T01:50:58;9.70;;;4.90;;
34035;SDS011;63481;52.588;22.472;2023-02-23T01:52:05;8.80;;;4.40;;
34035;SDS011;63481;52.588;22.472;2023-02-23T01:53:03;8.80;;;4.70;;
34035;SDS011;63481;52.588;22.472;2023-02-23T01:53:59;9.60;;;4.50;;
34035;SDS011;63481;52.588;22.472;2023-02-23T01:55:06;9.80;;;5.00;;
34035;SDS011;63481;52.588;22.472;2023-02-23T01:56:07;8.20;;;4.10;;
34035;SDS011;63481;52.588;22.472;2023-02-23T01:57:05;10.10;;;4.50;;
34035;SDS011;63481;52.588;22.472;2023-02-23T01:58:08;10.20;;;4.90;;
34035;SDS011;63481;52.588;22.472;2023-02-23T01:59:06;9.70;;;4.90;;
34035;SDS011;63481;52.588;22.472;2023-02-23T02:00:00;9.60;;;4.60;;
34035;SDS011;63481;52.588;22.472;2023-02-23T02:00:57;10.20;;;5.20;;
34035;SDS011;63481;52.588;22.472;2023-02-23T02:01:54;8.80;;;4.30;;
34035;SDS011;63481;52.588;22.472;2023-02-23T02:02:48;9.60;;;4.90;;
34035;SDS011;63481;52.588;22.472;2023-02-23T02:03:44;10.50;;;4.90;;
34035;SDS011;63481;52.588;22.472;2023-02-23T02:04:41;9.90;;;4.90;;
34035;SDS011;63481;52.588;22.472;2023-02-23T02:05:37;10.70;;;5.10;;
34035;SDS011;63481;52.588;22.472;2023-02-23T02:06:31;9.70;;;4.70;;
34035;SDS011;63481;52.588;22.472;2023-02-23T02:07:27;9.10;;;4.40;;
34035;SDS011;63481;52.588;22.472;2023-02-23T02:08:21;8.70;;;4.70;;
34035;SDS011;63481;52.588;22.472;2023-02-23T02:09:19;9.80;;;5.00;;
34035;SDS011;63481;52.588;22.472;2023-02-23T02:10:16;9.60;;;4.80;;
34035;SDS011;63481;52.588;22.472;2023-02-23T02:11:29;9.10;;;4.60;;
34035;SDS011;63481;52.588;22.472;2023-02-23T02:12:27;10.10;;;4.90;;
34035;SDS011;63481;52.588;22.472;2023-02-23T02:13:21;9.40;;;4.50;;
34035;SDS011;63481;52.588;22.472;2023-02-23T02:14:25;9.30;;;4.50;;
34035;SDS011;63481;52.588;22.472;2023-02-23T02:15:21;9.40;;;4.50;;
34035;SDS011;63481;52.588;22.472;2023-02-23T02:16:27;9.60;;;4.60;;
34035;SDS011;63481;52.588;22.472;2023-02-23T02:27:52;8.90;;;4.50;;
34035;SDS011;63481;52.588;22.472;2023-02-23T02:35:14;10.60;;;4.20;;
34035;SDS011;63481;52.588;22.472;2023-02-23T02:37:38;9.40;;;4.40;;
34035;SDS011;63481;52.588;22.472;2023-02-23T02:39:03;12.30;;;5.10;;
34035;SDS011;63481;52.588;22.472;2023-02-23T02:40:30;10.40;;;4.40;;
34035;SDS011;63481;52.588;22.472;2023-02-23T02:42:28;8.70;;;4.30;;
34035;SDS011;63481;52.588;22.472;2023-02-23T02:43:36;9.00;;;4.80;;
34035;SDS011;63481;52.588;22.472;2023-02-23T02:45:36;9.20;;;4.70;;
34035;SDS011;63481;52.588;22.472;2023-02-23T02:46:33;10.00;;;4.60;;
34035;SDS011;63481;52.588;22.472;2023-02-23T02:47:40;8.50;;;4.40;;
34035;SDS011;63481;52.588;22.472;2023-02-23T02:48:51;9.50;;;4.70;;
34035;SDS011;63481;52.588;22.472;2023-02-23T02:50:17;8.60;;;4.50;;
34035;SDS011;63481;52.588;22.472;2023-02-23T02:51:30;9.10;;;4.50;;
34035;SDS011;63481;52.588;22.472;2023-02-23T02:52:50;8.50;;;4.40;;
34035;SDS011;63481;52.588;22.472;2023-02-23T02:53:50;9.40;;;4.70;;
34035;SDS011;63481;52.588;22.472;2023-02-23T02:55:05;9.80;;;4.70;;
34035;SDS011;63481;52.588;22.472;2023-02-23T02:56:05;9.60;;;4.80;;
34035;SDS011;63481;52.588;22.472;2023-02-23T02:57:04;8.80;;;4.60;;
34035;SDS011;63481;52.588;22.472;2023-02-23T02:57:58;10.70;;;4.80;;
34035;SDS011;63481;52.588;22.472;2023-02-23T02:58:54;10.70;;;5.00;;
34035;SDS011;63481;52.588;22.472;2023-02-23T02:59:48;10.30;;;4.60;;
34035;SDS011;63481;52.588;22.472;2023-02-23T03:01:07;9.00;;;4.50;;
34035;SDS011;63481;52.588;22.472;2023-02-23T03:02:22;10.60;;;4.90;;
34035;SDS011;63481;52.588;22.472;2023-02-23T03:03:35;9.40;;;4.50;;
34035;SDS011;63481;52.588;22.472;2023-02-23T03:04:54;9.20;;;4.50;;
34035;SDS011;63481;52.588;22.472;2023-02-23T03:06:05;9.20;;;4.30;;
34035;SDS011;63481;52.588;22.472;2023-02-23T03:07:22;11.40;;;5.00;;
34035;SDS011;63481;52.588;22.472;2023-02-23T03:11:48;8.50;;;4.40;;
34035;SDS011;63481;52.588;22.472;2023-02-23T03:14:54;9.20;;;4.30;;
34035;SDS011;63481;52.588;22.472;2023-02-23T03:16:33;9.80;;;4.70;;
34035;SDS011;63481;52.588;22.472;2023-02-23T03:18:09;8.90;;;4.20;;
34035;SDS011;63481;52.588;22.472;2023-02-23T03:19:29;10.00;;;4.70;;
34035;SDS011;63481;52.588;22.472;2023-02-23T03:20:46;9.20;;;4.80;;
34035;SDS011;63481;52.588;22.472;2023-02-23T03:24:50;10.40;;;5.00;;
34035;SDS011;63481;52.588;22.472;2023-02-23T03:26:10;8.80;;;4.40;;
34035;SDS011;63481;52.588;22.472;2023-02-23T03:29:01;10.30;;;5.30;;
34035;SDS011;63481;52.588;22.472;2023-02-23T03:30:24;8.80;;;4.40;;
34035;SDS011;63481;52.588;22.472;2023-02-23T03:31:47;10.00;;;5.30;;
34035;SDS011;63481;52.588;22.472;2023-02-23T03:33:15;10.40;;;5.20;;
34035;SDS011;63481;52.588;22.472;2023-02-23T03:34:53;11.60;;;5.00;;
34035;SDS011;63481;52.588;22.472;2023-02-23T03:36:10;10.30;;;4.40;;
34035;SDS011;63481;52.588;22.472;2023-02-23T03:37:38;9.80;;;5.00;;
34035;SDS011;63481;52.588;22.472;2023-02-23T03:41:01;9.90;;;4.80;;
34035;SDS011;63481;52.588;22.472;2023-02-23T03:42:18;9.20;;;4.80;;
34035;SDS011;63481;52.588;22.472;2023-02-23T03:43:35;11.10;;;5.30;;
34035;SDS011;63481;52.588;22.472;2023-02-23T03:44:52;10.60;;;5.20;;
34035;SDS011;63481;52.588;22.472;2023-02-23T03:46:07;10.20;;;5.10;;
34035;SDS011;63481;52.588;22.472;2023-02-23T03:47:23;9.80;;;4.70;;
34035;SDS011;63481;52.588;22.472;2023-02-23T03:48:37;10.20;;;5.00;;
34035;SDS011;63481;52.588;22.472;2023-02-23T03:49:51;11.20;;;5.30;;
34035;SDS011;63481;52.588;22.472;2023-02-23T03:51:06;9.80;;;4.80;;
34035;SDS011;63481;52.588;22.472;2023-02-23T03:52:25;10.30;;;5.30;;
34035;SDS011;63481;52.588;22.472;2023-02-23T03:55:15;10.10;;;5.30;;
34035;SDS011;63481;52.588;22.472;2023-02-23T03:56:29;10.40;;;5.20;;
34035;SDS011;63481;52.588;22.472;2023-02-23T03:57:44;10.10;;;4.40;;
34035;SDS011;63481;52.588;22.472;2023-02-23T03:58:59;12.50;;;5.60;;
34035;SDS011;63481;52.588;22.472;2023-02-23T04:00:16;9.40;;;4.70;;
34035;SDS011;63481;52.588;22.472;2023-02-23T04:01:32;10.00;;;4.90;;
34035;SDS011;63481;52.588;22.472;2023-02-23T04:02:45;9.60;;;4.80;;
34035;SDS011;63481;52.588;22.472;2023-02-23T04:04:00;11.90;;;5.30;;
34035;SDS011;63481;52.588;22.472;2023-02-23T04:05:14;10.30;;;5.10;;
34035;SDS011;63481;52.588;22.472;2023-02-23T04:06:28;12.10;;;6.00;;
34035;SDS011;63481;52.588;22.472;2023-02-23T04:07:45;10.00;;;5.00;;
34035;SDS011;63481;52.588;22.472;2023-02-23T04:09:00;9.50;;;4.70;;
34035;SDS011;63481;52.588;22.472;2023-02-23T04:10:14;11.30;;;5.30;;
34035;SDS011;63481;52.588;22.472;2023-02-23T04:11:27;10.60;;;4.80;;
34035;SDS011;63481;52.588;22.472;2023-02-23T04:14:11;9.90;;;4.60;;
34035;SDS011;63481;52.588;22.472;2023-02-23T04:15:19;9.10;;;4.60;;
34035;SDS011;63481;52.588;22.472;2023-02-23T04:16:19;8.40;;;4.70;;
34035;SDS011;63481;52.588;22.472;2023-02-23T04:17:11;10.30;;;5.40;;
34035;SDS011;63481;52.588;22.472;2023-02-23T04:18:06;10.70;;;5.20;;
34035;SDS011;63481;52.588;22.472;2023-02-23T04:19:05;10.90;;;5.20;;
34035;SDS011;63481;52.588;22.472;2023-02-23T04:19:57;10.00;;;5.10;;
34035;SDS011;63481;52.588;22.472;2023-02-23T04:20:50;10.50;;;4.70;;
34035;SDS011;63481;52.588;22.472;2023-02-23T04:21:43;13.00;;;5.40;;
34035;SDS011;63481;52.588;22.472;2023-02-23T04:22:36;10.80;;;5.70;;
34035;SDS011;63481;52.588;22.472;2023-02-23T04:23:30;9.50;;;5.10;;
34035;SDS011;63481;52.588;22.472;2023-02-23T04:24:23;10.20;;;5.10;;
34035;SDS011;63481;52.588;22.472;2023-02-23T04:25:15;10.30;;;5.10;;
34035;SDS011;63481;52.588;22.472;2023-02-23T04:26:10;10.00;;;4.80;;
34035;SDS011;63481;52.588;22.472;2023-02-23T04:27:03;10.00;;;5.20;;
34035;SDS011;63481;52.588;22.472;2023-02-23T04:27:55;9.90;;;4.90;;
34035;SDS011;63481;52.588;22.472;2023-02-23T04:28:48;9.70;;;4.80;;
34035;SDS011;63481;52.588;22.472;2023-02-23T04:29:41;11.60;;;5.50;;
34035;SDS011;63481;52.588;22.472;2023-02-23T04:30:35;10.30;;;6.10;;
34035;SDS011;63481;52.588;22.472;2023-02-23T04:31:28;11.20;;;5.70;;
34035;SDS011;63481;52.588;22.472;2023-02-23T04:32:20;10.10;;;5.40;;
34035;SDS011;63481;52.588;22.472;2023-02-23T04:33:13;11.30;;;6.00;;
34035;SDS011;63481;52.588;22.472;2023-02-23T04:34:06;11.10;;;5.90;;
34035;SDS011;63481;52.588;22.472;2023-02-23T04:34:59;11.50;;;5.90;;
34035;SDS011;63481;52.588;22.472;2023-02-23T04:35:52;11.60;;;5.90;;
34035;SDS011;63481;52.588;22.472;2023-02-23T04:36:45;12.20;;;6.30;;
34035;SDS011;63481;52.588;22.472;2023-02-23T04:37:38;11.60;;;6.20;;
34035;SDS011;63481;52.588;22.472;2023-02-23T04:38:31;9.80;;;5.20;;
34035;SDS011;63481;52.588;22.472;2023-02-23T04:39:23;12.00;;;6.00;;
34035;SDS011;63481;52.588;22.472;2023-02-23T04:40:16;10.20;;;5.40;;
34035;SDS011;63481;52.588;22.472;2023-02-23T04:41:09;11.20;;;5.30;;
34035;SDS011;63481;52.588;22.472;2023-02-23T04:42:02;11.10;;;5.50;;
34035;SDS011;63481;52.588;22.472;2023-02-23T04:42:55;12.10;;;5.50;;
34035;SDS011;63481;52.588;22.472;2023-02-23T04:43:48;9.10;;;5.10;;
34035;SDS011;63481;52.588;22.472;2023-02-23T04:44:41;11.40;;;5.70;;
34035;SDS011;63481;52.588;22.472;2023-02-23T04:45:34;10.70;;;5.70;;
34035;SDS011;63481;52.588;22.472;2023-02-23T04:46:26;10.60;;;5.70;;
34035;SDS011;63481;52.588;22.472;2023-02-23T04:47:19;11.90;;;5.70;;
34035;SDS011;63481;52.588;22.472;2023-02-23T04:48:12;10.00;;;5.10;;
34035;SDS011;63481;52.588;22.472;2023-02-23T04:49:04;11.20;;;5.60;;
34035;SDS011;63481;52.588;22.472;2023-02-23T04:49:57;11.00;;;5.30;;
34035;SDS011;63481;52.588;22.472;2023-02-23T04:50:53;10.20;;;5.20;;
34035;SDS011;63481;52.588;22.472;2023-02-23T04:51:46;10.80;;;5.30;;
34035;SDS011;63481;52.588;22.472;2023-02-23T04:52:39;12.40;;;5.50;;
34035;SDS011;63481;52.588;22.472;2023-02-23T04:53:32;10.60;;;5.70;;
34035;SDS011;63481;52.588;22.472;2023-02-23T04:54:25;10.20;;;5.30;;
34035;SDS011;63481;52.588;22.472;2023-02-23T04:55:19;12.10;;;5.90;;
34035;SDS011;63481;52.588;22.472;2023-02-23T04:56:14;10.20;;;5.50;;
34035;SDS011;63481;52.588;22.472;2023-02-23T04:57:07;11.90;;;5.80;;
34035;SDS011;63481;52.588;22.472;2023-02-23T04:58:01;10.60;;;5.50;;
34035;SDS011;63481;52.588;22.472;2023-02-23T04:58:54;11.00;;;6.00;;
34035;SDS011;63481;52.588;22.472;2023-02-23T04:59:47;11.10;;;6.00;;
34035;SDS011;63481;52.588;22.472;2023-02-23T05:00:40;10.70;;;5.60;;
34035;SDS011;63481;52.588;22.472;2023-02-23T05:01:33;10.00;;;5.50;;
34035;SDS011;63481;52.588;22.472;2023-02-23T05:02:28;10.40;;;5.50;;
34035;SDS011;63481;52.588;22.472;2023-02-23T05:03:21;9.70;;;5.10;;
34035;SDS011;63481;52.588;22.472;2023-02-23T05:04:13;10.80;;;5.50;;
34035;SDS011;63481;52.588;22.472;2023-02-23T05:05:06;10.70;;;5.50;;
34035;SDS011;63481;52.588;22.472;2023-02-23T05:06:00;11.10;;;6.10;;
34035;SDS011;63481;52.588;22.472;2023-02-23T05:06:53;9.70;;;4.90;;
34035;SDS011;63481;52.588;22.472;2023-02-23T05:07:46;11.30;;;5.50;;
34035;SDS011;63481;52.588;22.472;2023-02-23T05:08:39;11.10;;;5.80;;
34035;SDS011;63481;52.588;22.472;2023-02-23T05:09:32;11.00;;;5.80;;
34035;SDS011;63481;52.588;22.472;2023-02-23T05:10:25;11.00;;;5.60;;
34035;SDS011;63481;52.588;22.472;2023-02-23T05:11:18;10.50;;;5.90;;
34035;SDS011;63481;52.588;22.472;2023-02-23T05:12:11;9.90;;;4.80;;
34035;SDS011;63481;52.588;22.472;2023-02-23T05:13:03;12.10;;;6.20;;
34035;SDS011;63481;52.588;22.472;2023-02-23T05:13:56;10.90;;;5.80;;
34035;SDS011;63481;52.588;22.472;2023-02-23T05:14:49;11.10;;;5.80;;
34035;SDS011;63481;52.588;22.472;2023-02-23T05:15:42;12.50;;;5.70;;
34035;SDS011;63481;52.588;22.472;2023-02-23T05:16:35;11.90;;;5.90;;
34035;SDS011;63481;52.588;22.472;2023-02-23T05:17:27;11.30;;;5.70;;
34035;SDS011;63481;52.588;22.472;2023-02-23T05:18:20;11.50;;;6.30;;
34035;SDS011;63481;52.588;22.472;2023-02-23T05:19:13;13.00;;;5.80;;
34035;SDS011;63481;52.588;22.472;2023-02-23T05:20:06;10.30;;;5.70;;
34035;SDS011;63481;52.588;22.472;2023-02-23T05:21:03;10.70;;;5.20;;
34035;SDS011;63481;52.588;22.472;2023-02-23T05:21:58;11.30;;;5.60;;
34035;SDS011;63481;52.588;22.472;2023-02-23T05:22:51;11.10;;;5.70;;
34035;SDS011;63481;52.588;22.472;2023-02-23T05:23:43;12.30;;;5.90;;
34035;SDS011;63481;52.588;22.472;2023-02-23T05:24:38;12.50;;;6.10;;
34035;SDS011;63481;52.588;22.472;2023-02-23T05:25:31;9.50;;;5.20;;
34035;SDS011;63481;52.588;22.472;2023-02-23T05:26:24;11.30;;;5.80;;
34035;SDS011;63481;52.588;22.472;2023-02-23T05:27:17;11.90;;;5.90;;
34035;SDS011;63481;52.588;22.472;2023-02-23T05:28:10;11.70;;;6.10;;
34035;SDS011;63481;52.588;22.472;2023-02-23T05:29:03;12.00;;;6.10;;
34035;SDS011;63481;52.588;22.472;2023-02-23T05:29:57;10.50;;;5.00;;
34035;SDS011;63481;52.588;22.472;2023-02-23T05:30:50;16.80;;;6.20;;
34035;SDS011;63481;52.588;22.472;2023-02-23T05:31:43;10.50;;;5.50;;
34035;SDS011;63481;52.588;22.472;2023-02-23T05:32:36;10.00;;;5.20;;
34035;SDS011;63481;52.588;22.472;2023-02-23T05:33:29;10.70;;;5.60;;
34035;SDS011;63481;52.588;22.472;2023-02-23T05:34:23;10.40;;;5.10;;
34035;SDS011;63481;52.588;22.472;2023-02-23T05:35:16;11.20;;;6.00;;
34035;SDS011;63481;52.588;22.472;2023-02-23T05:36:09;11.00;;;5.80;;
34035;SDS011;63481;52.588;22.472;2023-02-23T05:37:04;11.70;;;5.60;;
34035;SDS011;63481;52.588;22.472;2023-02-23T05:37:57;10.20;;;4.90;;
34035;SDS011;63481;52.588;22.472;2023-02-23T05:38:50;11.00;;;5.60;;
34035;SDS011;63481;52.588;22.472;2023-02-23T05:39:43;10.20;;;5.30;;
34035;SDS011;63481;52.588;22.472;2023-02-23T05:40:35;11.60;;;6.20;;
34035;SDS011;63481;52.588;22.472;2023-02-23T05:41:28;10.00;;;5.30;;
34035;SDS011;63481;52.588;22.472;2023-02-23T05:42:21;10.60;;;5.10;;
34035;SDS011;63481;52.588;22.472;2023-02-23T05:43:13;10.00;;;5.10;;
34035;SDS011;63481;52.588;22.472;2023-02-23T05:44:06;10.00;;;5.10;;
34035;SDS011;63481;52.588;22.472;2023-02-23T05:44:59;11.00;;;5.50;;
34035;SDS011;63481;52.588;22.472;2023-02-23T05:45:51;11.90;;;5.80;;
34035;SDS011;63481;52.588;22.472;2023-02-23T05:46:44;10.60;;;4.80;;
34035;SDS011;63481;52.588;22.472;2023-02-23T05:47:38;9.40;;;4.90;;
34035;SDS011;63481;52.588;22.472;2023-02-23T05:48:31;9.80;;;5.00;;
34035;SDS011;63481;52.588;22.472;2023-02-23T05:49:25;14.20;;;5.70;;
34035;SDS011;63481;52.588;22.472;2023-02-23T05:50:17;11.40;;;5.00;;
34035;SDS011;63481;52.588;22.472;2023-02-23T05:51:11;10.20;;;5.30;;
34035;SDS011;63481;52.588;22.472;2023-02-23T05:52:05;10.40;;;5.10;;
34035;SDS011;63481;52.588;22.472;2023-02-23T05:52:57;9.50;;;4.50;;
34035;SDS011;63481;52.588;22.472;2023-02-23T05:53:50;10.60;;;5.40;;
34035;SDS011;63481;52.588;22.472;2023-02-23T05:54:43;9.30;;;4.50;;
34035;SDS011;63481;52.588;22.472;2023-02-23T05:55:40;9.40;;;4.60;;
34035;SDS011;63481;52.588;22.472;2023-02-23T05:56:33;11.70;;;5.70;;
34035;SDS011;63481;52.588;22.472;2023-02-23T05:57:26;11.50;;;5.50;;
34035;SDS011;63481;52.588;22.472;2023-02-23T05:58:19;9.20;;;4.80;;
34035;SDS011;63481;52.588;22.472;2023-02-23T05:59:12;11.50;;;4.80;;
34035;SDS011;63481;52.588;22.472;2023-02-23T06:00:05;9.20;;;4.70;;
34035;SDS011;63481;52.588;22.472;2023-02-23T06:01:00;9.70;;;4.70;;
34035;SDS011;63481;52.588;22.472;2023-02-23T06:01:53;9.70;;;4.70;;
34035;SDS011;63481;52.588;22.472;2023-02-23T06:02:46;9.20;;;4.60;;
34035;SDS011;63481;52.588;22.472;2023-02-23T06:03:39;8.30;;;4.10;;
34035;SDS011;63481;52.588;22.472;2023-02-23T06:04:32;10.40;;;4.30;;
34035;SDS011;63481;52.588;22.472;2023-02-23T06:05:26;10.20;;;4.90;;
34035;SDS011;63481;52.588;22.472;2023-02-23T06:06:19;8.80;;;4.30;;
34035;SDS011;63481;52.588;22.472;2023-02-23T06:07:13;10.60;;;4.70;;
34035;SDS011;63481;52.588;22.472;2023-02-23T06:08:07;8.70;;;4.60;;
34035;SDS011;63481;52.588;22.472;2023-02-23T06:09:00;9.50;;;5.00;;
34035;SDS011;63481;52.588;22.472;2023-02-23T06:09:55;8.00;;;3.90;;
34035;SDS011;63481;52.588;22.472;2023-02-23T06:10:48;9.80;;;4.10;;
34035;SDS011;63481;52.588;22.472;2023-02-23T06:11:41;9.00;;;4.40;;
34035;SDS011;63481;52.588;22.472;2023-02-23T06:12:33;9.50;;;4.40;;
34035;SDS011;63481;52.588;22.472;2023-02-23T06:13:26;8.90;;;4.20;;
34035;SDS011;63481;52.588;22.472;2023-02-23T06:14:19;10.80;;;5.30;;
34035;SDS011;63481;52.588;22.472;2023-02-23T06:15:12;9.80;;;4.90;;
34035;SDS011;63481;52.588;22.472;2023-02-23T06:16:05;10.20;;;5.00;;
34035;SDS011;63481;52.588;22.472;2023-02-23T06:16:59;10.70;;;5.10;;
34035;SDS011;63481;52.588;22.472;2023-02-23T06:17:52;9.50;;;4.60;;
34035;SDS011;63481;52.588;22.472;2023-02-23T06:18:45;9.60;;;4.40;;
34035;SDS011;63481;52.588;22.472;2023-02-23T06:19:38;10.40;;;4.90;;